Terminal Aerodrome Forecast
Issued by NWS

Home | Current Version | Previous Version | Text Only | Print | Product List | Glossary On
Versions: 1 2 3 4 5 6 7 8 9 10 11 12 13 14 15
000
FTUS45 KTFX 230538
TAFBZN
TAF
KBZN 230538Z 2306/2412 17005KT P6SM VCFG SCT015 BKN090
      TEMPO 2306/2310 2SM BR SCT003 BKN015
     FM231000 VRB05KT 2SM BR SCT003 BKN015
     FM231700 VRB05KT P6SM SCT250
     FM240000 VRB04KT P6SM BKN090=

USA.gov is the U.S. government's official web portal to all federal, state and local government web resources and services.